Rio Rancho, NM

4:46 PM MST on December 28, 2014 (GMT -0700)
Near Hwy 528 and 550 | Change Station
CLOSE
Current Station
Personal Weather Station
Location: Rio Rancho, NM
Elevation: 5167 ft
Nearby Weather Stations
Active Advisory: Special Statement

Elev 5167 ft 35.32 °N, 106.58 °W | Updated 3 minutes ago

Partly Cloudy
Partly Cloudy
37.3 °F
Feels Like 29 °F
N
12.0
Wind Variable Wind from SW
Gusts 12.0 mph

Today
High -- | Low -- °F
--% Chance of Precip.
Yesterday
High -- | Low -- °F
Precip. -- in
7:14 AM 5:01 PM
First Quarter, 52% visible
Pressure 30.06 in
Visibility 10.0 miles
Clouds Mostly Cloudy 20000 ft
Windchill 29 °F
Dew Point 10 °F
Humidity 33%
Rainfall 0.00 in
Snow Depth Not available.
UV 0 out of 12
Pollen 1.10 out of 12
Air Quality Not available.
Flu Activity Not available.
METAR KAEG 282248Z 27003KT 10SM BKN200 03/M14 A3006

More Conditions Fewer Conditions

Pressure 30.06 in
Visibility 10.0 miles
Clouds Mostly Cloudy 20000 ft
Windchill 29 °F
Dew Point 10 °F
Humidity 33%
Rainfall 0.00 in
Snow Depth Not available.
UV 0 out of 12
Pollen 1.10 out of 12
Air Quality Not available.
Flu Activity Not available.
METAR KAEG 282248Z 27003KT 10SM BKN200 03/M14 A3006

More Conditions Fewer Conditions

10-Day Weather Forecast

Almanac

Astronomy

Dec. 28, 2014 Rise Set
Actual Time
Civil Twilight
Nautical Twilight
Astronomical Twilight
Moon
Length of Visible Light
Length of Day
Tomorrow will be .
, % of the Moon is Illuminated

Today's Extremes

State Highs State Lows

Community

WunderPhotos

Upload Photos

1,781,460 photos uploaded!

WunderBlogs® & News

Nearby

Air Quality

  Air Quality AQ Index Pollutant
Not available.

Snow Depth

Station Depth Elevation

Earthquake Activity

City Distance Mag. Time & Date
Minimum magnitude displayed is 2.5.

Coastal Water Temperatures

Place Temperature

Nearby Weather Stations